Details From LIMZ - LEVALDIGI
To LIEA - ALGHERO
Flight Number -
Tags generated
Created
Modified
Stats Distance 239 nm / 443 km
Max Altitude 30,900 ft / 9,418 m
Waypoints 6
Social Downloads 0
Likes 0
Share VATSIM

Download

Looking for another format? Having issues loading an existing format? Contact us
Advertisement - Login to hide

Notes

Basic altitude profile: - Ascent Rate: 2500ft/min - Ascent Speed: 250kts - Cruise Altitude: 240ft - Cruise Speed: 290kts - Descent Rate: 1500ft/min - Descent Speed: 200kts Options: - Use NATs: yes - Use PACOTS: yes - Use low airways: yes - Use high airways: yes

Route

LIMZ OMARD UM623 VAREK M623 PELOS LIEA

ID Type Via Altitude Latitude Longitude Leg Dist Tot Dist Heading (true) Name
O LIMZ APT - 0 ft / 0 m 44.54760˚ 7.62332˚ - 0 nm - LEVALDIGI
OMARD FIX - 30,900 ft / 9,418 m 43.10472˚ 7.59111˚ 86 nm 86 nm 181° / 181° -
VAREK FIX UM623 (AWY-HI) 21,800 ft / 6,645 m 42.31306˚ 7.98056˚ 50 nm 137 nm 160° / 160° -
OKTAV FIX M623 (AWY-LO) 8,500 ft / 2,591 m 41.28694˚ 8.14194˚ 62 nm 199 nm 173° / 173° -
PELOS FIX M623 (AWY-LO) 6,900 ft / 2,103 m 41.16195˚ 8.16139˚ 7 nm 206 nm 173° / 173° -
O LIEA APT - 0 ft / 0 m 40.63213˚ 8.29077˚ 32 nm 239 nm 169° / 170° ALGHERO

Altitude Profile

Advertisement - Login to hide

Weather


0- 5 10 15 20 25 30 35+ Temperature / ° C

Clouds and Precipitation
Forecast for 2017-12-14 12:00 UTC. Updated an hour ago

Ground ~20,000 ft ~40,000 ft Winds

LIMZ

Details ICAO LIMZ (CUF)
Name LEVALDIGI
Region Italy
Timezone Europe/Rome (UTC+1.0)
Stats Elevation 1,267 ft / 386 m (AMSL)
Location 44.547603° 7.623322°
Runways 1
Magnetic Variation 2.113° E

METAR

LIMZ 140950Z 20007KT CAVOK M04/M06 Q1009

Decode

TAF

TAF LIMZ 140500Z 1406/1506 VRB05KT CAVOK

Decode

Departure Runways

ID Width Length Bearing (true) Bearing (mag) Surface Threshold Offset Overrun Length
03 148 ft / 45 m 6,903 ft / 2,104 m 32.49° 30.38° Asphalt 0 ft / 0 m 696 ft / 212 m
21 148 ft / 45 m 6,903 ft / 2,104 m 212.50° 210.39° Asphalt 0 ft / 0 m 581 ft / 177 m

LIEA

Details ICAO LIEA (AHO)
Name ALGHERO
Region Italy
Timezone Europe/Rome (UTC+1.0)
Stats Elevation 87 ft / 27 m (AMSL)
Location 40.632132° 8.290774°
Runways 1
Magnetic Variation 2.194° E

METAR

LIEA 141020Z 23014KT 9999 -RA FEW025 SCT035 15/12 Q1018

Decode

TAF

TAF LIEA 140500Z 1406/1506 23018G28KT 9999 SCT035 BECMG 1503/1506 4000 SHRA

Decode

Destination Runways

ID Width Length Bearing (true) Bearing (mag) Surface Threshold Offset Overrun Length
02 148 ft / 45 m 9,854 ft / 3,004 m 24.51° 22.32° Asphalt 0 ft / 0 m 0 ft / 0 m
20 148 ft / 45 m 9,854 ft / 3,004 m 204.52° 202.33° Asphalt 0 ft / 0 m 0 ft / 0 m

Approach Navaids

Runway Type Ident Frequency Range Bearing (true) Bearing (mag) Slope Elevation
20 Localiser IALF 110.15 MHz 18 nm / 33 km 204.47° 202.28° - 72 ft / 22 m (AMSL)
20 Glidescope IALF 110.15 MHz 10 nm / 19 km 204.51° 202.32° 3.00° 133 ft / 41 m (AMSL)
20 DME IALF 110.15 MHz 25 nm / 46 km - - - 133 ft / 41 m (AMSL)

Popular Alternatives